Time;durP1;ratioP1;P1;durP2;ratioP2;P2;SDS_P1;SDS_P2;PMS_P1;PMS_P2;Temp;Humidity;BMP_temperature;BMP_pressure;BME280_temperature;BME280_humidity;BME280_pressure;Samples;Min_cycle;Max_cycle;Signal;HPM_P1;HPM_P2
2023/03/16 00:01:59;;;;;;;;;;;6.70;82.80;;;;;;5107335;28;19947;-91
2023/03/16 00:04:25;;;;;;;;;;;6.70;82.40;;;;;;5117100;28;20512;-91
2023/03/16 00:06:50;;;;;;;;;;;6.70;82.10;;;;;;5117079;28;20330;-91
2023/03/16 00:09:16;;;;;;;;;;;6.80;81.50;;;;;;5115447;28;19941;-90
2023/03/16 00:11:41;;;;;;;;;;;6.80;81.40;;;;;;5096637;28;19939;-91
2023/03/16 00:14:07;;;;;;;;;;;6.80;81.10;;;;;;5096590;28;19948;-90
2023/03/16 00:16:34;;;;;;;;;;;6.80;80.30;;;;;;5096549;28;20046;-91
2023/03/16 00:19:02;;;;;;;;;;;6.70;79.90;;;;;;5096509;28;19940;-91
2023/03/16 00:21:30;;;;;;;;;;;6.60;79.50;;;;;;5115974;28;19953;-90
2023/03/16 00:23:57;;;;;;;;;;;6.40;79.10;;;;;;5115547;28;19975;-91
2023/03/16 00:26:22;;;;;;;;;;;6.30;79.20;;;;;;5116933;28;20402;-90
2023/03/16 00:28:48;;;;;;;;;;;6.10;78.90;;;;;;5115416;28;19941;-90
2023/03/16 00:31:13;;;;;;;;;;;6.00;79.40;;;;;;5098832;28;19959;-90
2023/03/16 00:33:41;;;;;;;;;;;5.80;81.00;;;;;;5096254;28;19938;-91
2023/03/16 00:36:08;;;;;;;;;;;5.90;81.90;;;;;;5096140;28;19991;-91
2023/03/16 00:38:35;;;;;;;;;;;6.00;82.20;;;;;;5096140;28;19965;-91
2023/03/16 00:41:04;;;;;;;;;;;6.00;82.40;;;;;;5111010;28;19954;-90
2023/03/16 00:43:30;;;;;;;;;;;6.10;82.60;;;;;;5116395;28;19995;-90
2023/03/16 00:45:57;;;;;;;;;;;6.20;83.20;;;;;;5116081;28;19946;-90
2023/03/16 00:48:23;;;;;;;;;;;6.30;82.90;;;;;;5115097;28;20425;-91
2023/03/16 00:50:48;;;;;;;;;;;6.10;82.40;;;;;;5101216;28;19946;-90
2023/03/16 00:53:14;;;;;;;;;;;6.10;83.30;;;;;;5095641;28;19970;-91
2023/03/16 00:55:40;;;;;;;;;;;6.10;83.70;;;;;;5095772;28;19939;-91
2023/03/16 00:58:06;;;;;;;;;;;6.00;83.50;;;;;;5095742;28;19946;-90
2023/03/16 01:00:31;;;;;;;;;;;6.00;84.30;;;;;;5106607;28;20037;-91
2023/03/16 01:02:57;;;;;;;;;;;6.10;84.30;;;;;;5116253;28;19947;-91
2023/03/16 01:05:22;;;;;;;;;;;6.20;84.40;;;;;;5115807;28;19978;-90
2023/03/16 01:07:51;;;;;;;;;;;6.30;84.50;;;;;;5115177;28;20520;-91
2023/03/16 01:10:16;;;;;;;;;;;6.40;83.50;;;;;;5107200;28;19944;-90
2023/03/16 01:12:44;;;;;;;;;;;6.30;83.30;;;;;;5095484;28;20005;-90
2023/03/16 01:15:09;;;;;;;;;;;5.90;83.90;;;;;;5094204;28;19941;-91
2023/03/16 01:17:35;;;;;;;;;;;5.90;84.00;;;;;;5095429;28;20002;-91
2023/03/16 01:20:01;;;;;;;;;;;5.90;84.40;;;;;;5100868;28;19950;-90
2023/03/16 01:22:27;;;;;;;;;;;6.00;84.50;;;;;;5105523;28;20000;-90
2023/03/16 01:24:53;;;;;;;;;;;6.00;84.40;;;;;;5095264;28;19942;-89
2023/03/16 01:27:18;;;;;;;;;;;6.10;84.30;;;;;;5095198;28;19967;-91
2023/03/16 01:29:44;;;;;;;;;;;6.10;84.00;;;;;;5098437;28;19942;-89
2023/03/16 01:32:09;;;;;;;;;;;6.20;83.20;;;;;;5114221;28;19942;-90
2023/03/16 01:34:35;;;;;;;;;;;6.20;83.10;;;;;;5115479;28;19943;-90
2023/03/16 01:37:01;;;;;;;;;;;6.10;82.70;;;;;;5115403;28;19937;-90
2023/03/16 01:39:26;;;;;;;;;;;6.00;82.50;;;;;;5114202;28;19937;-90
2023/03/16 01:41:52;;;;;;;;;;;5.90;82.90;;;;;;5094926;28;20295;-90
2023/03/16 01:44:21;;;;;;;;;;;6.00;83.30;;;;;;5094912;28;19940;-90
2023/03/16 01:46:47;;;;;;;;;;;6.00;83.20;;;;;;5093606;28;19964;-90
2023/03/16 01:49:15;;;;;;;;;;;5.90;83.10;;;;;;5094764;28;20372;-91
2023/03/16 01:51:49;;;;;;;;;;;5.90;83.00;;;;;;5110275;28;20004;-91
2023/03/16 01:54:18;;;;;;;;;;;5.90;82.80;;;;;;5115328;28;19968;-90
2023/03/16 01:57:04;;;;;;;;;;;5.90;82.80;;;;;;5111040;28;19947;-90
2023/03/16 01:59:33;;;;;;;;;;;5.90;82.60;;;;;;5094476;28;20463;-90
2023/03/16 02:01:59;;;;;;;;;;;6.00;81.60;;;;;;5094460;28;19940;-90
2023/03/16 02:04:24;;;;;;;;;;;5.90;81.60;;;;;;5094372;28;19987;-90
2023/03/16 02:06:53;;;;;;;;;;;6.00;82.00;;;;;;5101266;28;19969;-90
2023/03/16 02:09:19;;;;;;;;;;;6.00;82.30;;;;;;5113535;28;20007;-91
2023/03/16 02:11:45;;;;;;;;;;;6.00;82.20;;;;;;5114782;28;20419;-91
2023/03/16 02:14:11;;;;;;;;;;;5.90;82.30;;;;;;5114742;28;19940;-91
2023/03/16 02:16:37;;;;;;;;;;;5.90;82.30;;;;;;5112499;28;19944;-90
2023/03/16 02:19:05;;;;;;;;;;;5.70;81.80;;;;;;5092954;28;19948;-91
2023/03/16 02:21:34;;;;;;;;;;;5.70;81.90;;;;;;5094205;28;19992;-90
2023/03/16 02:24:02;;;;;;;;;;;5.70;82.20;;;;;;5094168;28;20020;-91
2023/03/16 02:26:27;;;;;;;;;;;5.70;82.30;;;;;;5095106;28;20005;-90
2023/03/16 02:29:05;;;;;;;;;;;5.70;82.50;;;;;;5093979;28;20351;-91
2023/03/16 02:31:31;;;;;;;;;;;5.70;82.50;;;;;;5094038;28;19939;-90
2023/03/16 02:33:57;;;;;;;;;;;5.80;82.30;;;;;;5093917;28;19949;-90
2023/03/16 02:36:23;;;;;;;;;;;5.90;82.10;;;;;;5096470;28;19943;-90
2023/03/16 02:38:48;;;;;;;;;;;5.90;82.20;;;;;;5114221;28;20000;-90
2023/03/16 02:41:16;;;;;;;;;;;5.80;82.00;;;;;;5112203;28;19948;-89
2023/03/16 02:44:00;;;;;;;;;;;5.80;82.50;;;;;;5114207;28;19939;-91
2023/03/16 02:46:26;;;;;;;;;;;5.80;82.60;;;;;;5110611;28;19975;-90
2023/03/16 02:48:56;;;;;;;;;;;5.70;82.70;;;;;;5093689;28;20432;-91
2023/03/16 02:51:22;;;;;;;;;;;5.80;83.10;;;;;;5093725;28;19939;-91
2023/03/16 02:53:47;;;;;;;;;;;5.70;82.80;;;;;;5093565;28;20061;-90
2023/03/16 02:56:13;;;;;;;;;;;5.70;83.00;;;;;;5094551;28;20037;-89
2023/03/16 02:58:38;;;;;;;;;;;5.40;83.00;;;;;;5113533;28;19946;-90
2023/03/16 03:01:04;;;;;;;;;;;5.30;83.60;;;;;;5112472;28;19986;-90
2023/03/16 03:03:33;;;;;;;;;;;5.10;83.80;;;;;;5113694;28;19943;-90
2023/03/16 03:05:58;;;;;;;;;;;5.00;83.80;;;;;;5113717;28;19983;-90
2023/03/16 03:08:24;;;;;;;;;;;4.90;84.20;;;;;;5109113;28;19949;-90
2023/03/16 03:10:50;;;;;;;;;;;4.80;84.50;;;;;;5113758;28;19948;-89
2023/03/16 03:13:15;;;;;;;;;;;4.70;84.70;;;;;;5113434;28;19945;-90
2023/03/16 03:15:41;;;;;;;;;;;4.60;84.40;;;;;;5113318;28;19940;-90
2023/03/16 03:18:07;;;;;;;;;;;4.50;85.10;;;;;;5096778;28;20419;-89
2023/03/16 03:20:33;;;;;;;;;;;4.50;85.20;;;;;;5093230;28;19949;-89
2023/03/16 03:22:59;;;;;;;;;;;4.80;85.60;;;;;;5093201;28;20308;-89
2023/03/16 03:25:24;;;;;;;;;;;4.70;85.30;;;;;;5093207;28;19943;-89
2023/03/16 03:27:53;;;;;;;;;;;4.60;84.60;;;;;;5102416;28;20053;-89
2023/03/16 03:30:20;;;;;;;;;;;4.60;84.80;;;;;;5093209;28;20457;-90
2023/03/16 03:32:45;;;;;;;;;;;4.60;84.70;;;;;;5093376;28;19946;-89
2023/03/16 03:35:12;;;;;;;;;;;4.40;84.90;;;;;;5093144;28;20377;-89
2023/03/16 03:37:38;;;;;;;;;;;4.30;85.10;;;;;;5104633;28;19972;-90
2023/03/16 03:40:04;;;;;;;;;;;4.40;85.80;;;;;;5113487;28;19939;-89
2023/03/16 03:42:30;;;;;;;;;;;4.40;85.80;;;;;;5113463;28;19945;-89
2023/03/16 03:44:55;;;;;;;;;;;4.40;85.80;;;;;;5113397;28;19939;-90
2023/03/16 03:47:21;;;;;;;;;;;4.20;85.30;;;;;;5103628;28;20366;-90
2023/03/16 03:49:46;;;;;;;;;;;4.20;85.20;;;;;;5093038;28;20475;-90
2023/03/16 03:52:12;;;;;;;;;;;4.10;85.50;;;;;;5093147;28;19945;-90
2023/03/16 03:54:38;;;;;;;;;;;4.10;86.00;;;;;;5091857;28;19948;-90
2023/03/16 03:57:04;;;;;;;;;;;4.10;85.70;;;;;;5113280;28;19936;-89
2023/03/16 03:59:29;;;;;;;;;;;4.10;85.40;;;;;;5113261;28;19995;-90
2023/03/16 04:01:55;;;;;;;;;;;4.10;85.20;;;;;;5113082;28;20046;-89
2023/03/16 04:04:21;;;;;;;;;;;4.00;85.70;;;;;;5113092;28;19973;-89
2023/03/16 04:06:46;;;;;;;;;;;3.90;85.60;;;;;;5094615;28;19965;-90
2023/03/16 04:09:12;;;;;;;;;;;3.80;86.20;;;;;;5092821;28;19987;-89
2023/03/16 04:11:37;;;;;;;;;;;3.80;86.40;;;;;;5092738;28;19974;-90
2023/03/16 04:14:03;;;;;;;;;;;3.70;86.40;;;;;;5092843;28;19936;-90
2023/03/16 04:16:29;;;;;;;;;;;3.70;86.00;;;;;;5108145;28;20445;-90
2023/03/16 04:18:55;;;;;;;;;;;3.60;85.40;;;;;;5113151;28;19944;-90
2023/03/16 04:21:20;;;;;;;;;;;3.60;85.70;;;;;;5113079;28;20617;-89
2023/03/16 04:23:46;;;;;;;;;;;3.50;85.80;;;;;;5113011;28;19945;-89
2023/03/16 04:26:12;;;;;;;;;;;3.30;83.90;;;;;;5102079;28;19949;-89
2023/03/16 04:28:38;;;;;;;;;;;3.40;82.80;;;;;;5096634;28;19942;-89
2023/03/16 04:31:05;;;;;;;;;;;3.40;83.00;;;;;;5096354;28;20006;-89
2023/03/16 04:33:32;;;;;;;;;;;3.40;83.20;;;;;;5100467;28;20048;-89
2023/03/16 04:35:58;;;;;;;;;;;3.50;83.20;;;;;;5116643;28;19986;-89
2023/03/16 04:38:23;;;;;;;;;;;3.60;84.00;;;;;;5116635;28;20367;-89
2023/03/16 04:40:49;;;;;;;;;;;3.60;83.10;;;;;;5116537;28;20389;-89
2023/03/16 04:43:14;;;;;;;;;;;3.60;83.30;;;;;;5114489;28;19947;-89
2023/03/16 04:45:40;;;;;;;;;;;3.60;83.10;;;;;;5096086;28;19939;-89
2023/03/16 04:48:06;;;;;;;;;;;3.50;82.50;;;;;;5095913;28;19955;-89
2023/03/16 04:50:31;;;;;;;;;;;3.40;83.10;;;;;;5095956;28;19936;-89
2023/03/16 04:52:57;;;;;;;;;;;3.20;83.30;;;;;;5095861;28;20010;-89
2023/03/16 04:55:22;;;;;;;;;;;3.10;83.10;;;;;;5114550;28;19949;-90
2023/03/16 04:57:48;;;;;;;;;;;3.00;82.30;;;;;;5115850;28;19944;-89
2023/03/16 05:00:21;;;;;;;;;;;3.20;82.70;;;;;;5116206;28;20399;-89
2023/03/16 05:02:47;;;;;;;;;;;3.20;82.40;;;;;;5116019;28;19945;-89
2023/03/16 05:05:14;;;;;;;;;;;3.10;81.70;;;;;;5097685;28;19980;-89
2023/03/16 05:07:40;;;;;;;;;;;3.10;83.30;;;;;;5095527;28;19968;-88
2023/03/16 05:10:07;;;;;;;;;;;3.10;81.70;;;;;;5095818;28;20456;-89
2023/03/16 05:12:32;;;;;;;;;;;3.10;81.00;;;;;;5095567;28;19945;-89
2023/03/16 05:14:58;;;;;;;;;;;3.20;81.50;;;;;;5096541;28;20031;-89
2023/03/16 05:17:23;;;;;;;;;;;3.20;82.00;;;;;;5095396;28;19947;-89
2023/03/16 05:19:49;;;;;;;;;;;3.20;80.10;;;;;;5095416;28;20021;-89
2023/03/16 05:22:14;;;;;;;;;;;3.40;79.20;;;;;;5095373;28;20383;-90
2023/03/16 05:24:40;;;;;;;;;;;3.40;79.20;;;;;;5107694;28;19942;-89
2023/03/16 05:27:05;;;;;;;;;;;3.20;76.50;;;;;;5115581;28;19981;-89
2023/03/16 05:29:31;;;;;;;;;;;3.20;77.50;;;;;;5115651;28;20384;-89
2023/03/16 05:31:58;;;;;;;;;;;3.30;79.90;;;;;;5115547;28;20392;-89
2023/03/16 05:34:23;;;;;;;;;;;3.20;78.80;;;;;;5104806;28;20423;-89
2023/03/16 05:36:49;;;;;;;;;;;3.30;79.30;;;;;;5094445;28;19936;-89
2023/03/16 05:39:14;;;;;;;;;;;3.30;82.10;;;;;;5093796;28;20356;-89
2023/03/16 05:41:40;;;;;;;;;;;3.40;84.40;;;;;;5095021;28;19937;-89
2023/03/16 05:44:06;;;;;;;;;;;3.40;85.10;;;;;;5099831;28;19944;-89
2023/03/16 05:46:32;;;;;;;;;;;3.40;85.20;;;;;;5095077;28;19958;-90
2023/03/16 05:48:58;;;;;;;;;;;3.30;85.20;;;;;;5094569;28;20368;-90
2023/03/16 05:51:25;;;;;;;;;;;3.20;85.20;;;;;;5094815;28;19941;-89
2023/03/16 05:53:51;;;;;;;;;;;3.20;85.50;;;;;;5099247;28;19955;-89
2023/03/16 05:56:16;;;;;;;;;;;3.20;85.30;;;;;;5114985;28;19948;-89
2023/03/16 05:58:42;;;;;;;;;;;3.20;85.10;;;;;;5114924;28;19938;-89
2023/03/16 06:01:09;;;;;;;;;;;3.20;83.70;;;;;;5114842;28;20059;-90
2023/03/16 06:03:35;;;;;;;;;;;3.30;83.10;;;;;;5111510;28;20165;-89
2023/03/16 06:06:01;;;;;;;;;;;3.30;83.50;;;;;;5092415;28;20401;-90
2023/03/16 06:08:26;;;;;;;;;;;3.20;83.40;;;;;;5093922;28;20010;-89
2023/03/16 06:10:52;;;;;;;;;;;3.10;82.90;;;;;;5095410;28;19967;-89
2023/03/16 06:13:17;;;;;;;;;;;3.10;82.70;;;;;;5104184;28;19995;-89
2023/03/16 06:15:43;;;;;;;;;;;3.20;82.30;;;;;;5093575;28;19947;-89
2023/03/16 06:18:08;;;;;;;;;;;3.20;79.20;;;;;;5093694;28;19953;-89
2023/03/16 06:20:34;;;;;;;;;;;3.50;79.90;;;;;;5097656;28;20361;-90
2023/03/16 06:22:59;;;;;;;;;;;3.90;79.80;;;;;;5114489;28;19936;-90
2023/03/16 06:25:25;;;;;;;;;;;4.00;78.40;;;;;;5110210;28;19996;-89
2023/03/16 06:27:51;;;;;;;;;;;4.00;77.30;;;;;;5092149;28;20019;-89
2023/03/16 06:30:16;;;;;;;;;;;4.00;79.20;;;;;;5081884;28;19945;-89
2023/03/16 06:32:43;;;;;;;;;;;3.90;78.90;;;;;;5089844;28;19945;-90
2023/03/16 06:35:08;;;;;;;;;;;4.10;78.70;;;;;;5076118;28;19952;-89
2023/03/16 06:37:34;;;;;;;;;;;4.10;77.70;;;;;;5082783;28;20033;-90
2023/03/16 06:39:59;;;;;;;;;;;4.10;77.30;;;;;;5085985;28;19948;-89
2023/03/16 06:42:25;;;;;;;;;;;4.10;75.40;;;;;;5088263;28;19957;-90
2023/03/16 06:44:51;;;;;;;;;;;4.10;75.80;;;;;;5086981;28;19941;-89
2023/03/16 06:47:17;;;;;;;;;;;4.20;74.30;;;;;;5085385;28;19956;-89
2023/03/16 06:49:43;;;;;;;;;;;4.20;73.50;;;;;;5082767;28;19953;-89
2023/03/16 06:52:09;;;;;;;;;;;4.50;73.00;;;;;;5088553;28;19944;-90
2023/03/16 06:54:36;;;;;;;;;;;4.50;73.00;;;;;;5091256;28;19953;-89
2023/03/16 06:57:02;;;;;;;;;;;4.60;74.30;;;;;;5091486;28;20465;-89
2023/03/16 06:59:27;;;;;;;;;;;4.80;73.10;;;;;;5084271;28;20082;-90
2023/03/16 07:01:53;;;;;;;;;;;4.90;74.10;;;;;;5088691;28;20287;-90
2023/03/16 07:04:19;;;;;;;;;;;5.10;74.70;;;;;;5101898;22;19991;-90
2023/03/16 07:06:44;;;;;;;;;;;5.40;73.50;;;;;;5103585;28;19968;-90
2023/03/16 07:09:11;;;;;;;;;;;5.60;71.40;;;;;;5100678;28;20064;-90
2023/03/16 07:11:37;;;;;;;;;;;5.70;71.50;;;;;;5105139;28;19960;-90
2023/03/16 07:14:02;;;;;;;;;;;5.80;70.00;;;;;;5099580;28;19949;-90
2023/03/16 07:16:28;;;;;;;;;;;5.90;70.20;;;;;;5098038;28;20325;-89
2023/03/16 07:18:54;;;;;;;;;;;6.00;69.00;;;;;;5105916;28;20005;-89
2023/03/16 07:21:19;;;;;;;;;;;6.10;66.20;;;;;;5099809;28;20322;-90
2023/03/16 07:23:45;;;;;;;;;;;6.40;64.90;;;;;;5105011;28;20037;-89
2023/03/16 07:26:11;;;;;;;;;;;6.60;64.90;;;;;;5103841;28;19950;-89
2023/03/16 07:28:37;;;;;;;;;;;6.90;64.90;;;;;;5107694;28;19947;-90
2023/03/16 07:31:03;;;;;;;;;;;6.90;64.20;;;;;;5107125;28;19945;-90
2023/03/16 07:33:29;;;;;;;;;;;7.20;64.60;;;;;;5106094;28;19946;-90
2023/03/16 07:35:55;;;;;;;;;;;7.40;64.80;;;;;;5105307;28;19946;-90
2023/03/16 07:38:21;;;;;;;;;;;7.70;66.30;;;;;;5101068;28;20327;-90
2023/03/16 07:40:47;;;;;;;;;;;7.90;66.10;;;;;;5089152;28;20480;-90
2023/03/16 07:43:14;;;;;;;;;;;7.90;64.80;;;;;;5101470;28;20029;-90
2023/03/16 07:45:40;;;;;;;;;;;7.80;64.30;;;;;;5095776;28;20038;-90
2023/03/16 07:48:06;;;;;;;;;;;7.80;64.80;;;;;;5101008;28;19995;-90
2023/03/16 07:50:32;;;;;;;;;;;7.80;66.10;;;;;;5097856;28;20009;-89
2023/03/16 07:52:59;;;;;;;;;;;7.90;66.90;;;;;;5095406;28;20573;-89
2023/03/16 07:55:25;;;;;;;;;;;8.10;65.30;;;;;;5064960;28;19962;-89
2023/03/16 07:57:51;;;;;;;;;;;8.20;64.30;;;;;;5090939;28;20584;-89
2023/03/16 08:00:22;;;;;;;;;;;8.40;64.40;;;;;;5061998;28;19957;-88
2023/03/16 08:02:49;;;;;;;;;;;8.40;65.20;;;;;;5062531;28;20391;-90
2023/03/16 08:05:15;;;;;;;;;;;8.50;65.40;;;;;;5080883;28;19971;-90
2023/03/16 08:07:41;;;;;;;;;;;8.70;65.60;;;;;;5104564;27;19960;-90
2023/03/16 08:10:07;;;;;;;;;;;8.90;65.20;;;;;;5103276;27;20036;-90
2023/03/16 08:12:35;;;;;;;;;;;9.00;65.70;;;;;;5106860;27;19994;-90
2023/03/16 08:15:01;;;;;;;;;;;9.10;66.60;;;;;;5113562;27;19946;-90
2023/03/16 08:17:27;;;;;;;;;;;9.30;64.90;;;;;;5105384;27;20009;-90
2023/03/16 08:19:52;;;;;;;;;;;9.40;65.40;;;;;;5105602;27;20030;-90
2023/03/16 08:22:20;;;;;;;;;;;9.60;64.70;;;;;;5107950;28;20001;-90
2023/03/16 08:24:47;;;;;;;;;;;9.60;64.50;;;;;;5114180;27;20423;-89
2023/03/16 08:27:20;;;;;;;;;;;9.70;65.70;;;;;;5101390;27;19969;-89
2023/03/16 08:29:50;;;;;;;;;;;9.90;64.30;;;;;;5108818;28;20026;-88
2023/03/16 08:32:17;;;;;;;;;;;10.10;63.40;;;;;;5103063;27;19949;-89
2023/03/16 08:34:47;;;;;;;;;;;10.10;60.40;;;;;;5103998;27;19957;-89
2023/03/16 08:37:13;;;;;;;;;;;10.20;60.30;;;;;;5111519;27;19938;-89
2023/03/16 08:39:44;;;;;;;;;;;10.40;60.70;;;;;;5106719;28;19947;-89
2023/03/16 08:42:14;;;;;;;;;;;10.40;61.50;;;;;;5113822;28;20039;-89
2023/03/16 08:44:40;;;;;;;;;;;10.40;62.10;;;;;;5108155;27;19995;-89
2023/03/16 08:47:06;;;;;;;;;;;10.50;61.70;;;;;;5098445;28;19972;-89
2023/03/16 08:49:33;;;;;;;;;;;10.60;59.80;;;;;;5115163;27;19946;-90
2023/03/16 08:52:00;;;;;;;;;;;10.70;61.30;;;;;;5107443;27;20008;-89
2023/03/16 08:54:27;;;;;;;;;;;10.80;59.60;;;;;;5118194;27;20135;-89
2023/03/16 08:56:53;;;;;;;;;;;10.90;58.00;;;;;;5065555;28;19943;-89
2023/03/16 08:59:19;;;;;;;;;;;10.90;59.70;;;;;;5110007;28;19941;-89
2023/03/16 09:01:45;;;;;;;;;;;11.00;57.20;;;;;;5110710;27;20448;-89
2023/03/16 09:04:12;;;;;;;;;;;11.00;54.60;;;;;;5087790;28;19976;-89
2023/03/16 09:06:40;;;;;;;;;;;11.00;56.70;;;;;;5090831;28;19968;-89
2023/03/16 09:09:08;;;;;;;;;;;11.20;57.00;;;;;;5087366;28;19955;-89
2023/03/16 09:11:34;;;;;;;;;;;11.30;57.30;;;;;;5088052;28;19939;-89
2023/03/16 09:14:01;;;;;;;;;;;11.30;57.50;;;;;;5087965;28;19990;-89
2023/03/16 09:16:29;;;;;;;;;;;11.30;56.80;;;;;;5060690;28;19950;-90
2023/03/16 09:18:58;;;;;;;;;;;11.40;59.00;;;;;;5071593;28;19951;-89
2023/03/16 09:21:25;;;;;;;;;;;11.40;53.80;;;;;;5079051;28;19956;-89
2023/03/16 09:23:51;;;;;;;;;;;11.40;58.00;;;;;;5088067;28;20328;-89
2023/03/16 09:26:17;;;;;;;;;;;11.80;54.70;;;;;;5089532;28;19946;-89
2023/03/16 09:28:43;;;;;;;;;;;11.90;57.60;;;;;;5086482;28;20316;-89
2023/03/16 09:31:14;;;;;;;;;;;11.90;51.30;;;;;;5078789;28;19943;-89
2023/03/16 09:33:40;;;;;;;;;;;11.80;54.50;;;;;;5075093;28;19947;-89
2023/03/16 09:36:10;;;;;;;;;;;11.80;57.30;;;;;;5077828;28;19959;-89
2023/03/16 09:38:37;;;;;;;;;;;11.80;57.80;;;;;;5084457;28;19998;-89
2023/03/16 09:41:16;;;;;;;;;;;12.00;56.80;;;;;;5090905;28;19991;-89
2023/03/16 09:43:48;;;;;;;;;;;12.10;54.80;;;;;;5088144;28;19952;-89
2023/03/16 09:46:26;;;;;;;;;;;12.20;55.60;;;;;;5081975;28;20435;-89
2023/03/16 09:48:52;;;;;;;;;;;12.30;51.10;;;;;;5094549;28;19936;-89
2023/03/16 09:51:21;;;;;;;;;;;12.20;56.40;;;;;;5076512;28;20033;-89
2023/03/16 09:53:49;;;;;;;;;;;12.30;52.30;;;;;;5086048;28;19963;-89
2023/03/16 09:56:28;;;;;;;;;;;12.20;51.00;;;;;;5088681;28;19955;-88
2023/03/16 09:58:55;;;;;;;;;;;12.20;52.50;;;;;;5091310;28;19952;-89
2023/03/16 10:01:36;;;;;;;;;;;12.30;54.80;;;;;;5090358;28;20001;-89
2023/03/16 10:04:05;;;;;;;;;;;12.40;53.80;;;;;;5091153;28;19971;-89
2023/03/16 10:06:32;;;;;;;;;;;12.40;49.20;;;;;;5105254;28;20438;-89
2023/03/16 10:09:01;;;;;;;;;;;12.40;50.30;;;;;;5105139;28;19991;-90
2023/03/16 10:11:32;;;;;;;;;;;12.50;53.00;;;;;;5113176;27;19998;-89
2023/03/16 10:14:18;;;;;;;;;;;12.70;54.40;;;;;;5101841;27;20486;-89
2023/03/16 10:16:50;;;;;;;;;;;12.80;53.10;;;;;;5102262;27;19941;-89
2023/03/16 10:19:19;;;;;;;;;;;12.90;52.60;;;;;;5104955;27;19973;-89
2023/03/16 10:21:46;;;;;;;;;;;12.60;46.00;;;;;;5109028;27;20328;-89
2023/03/16 10:24:15;;;;;;;;;;;12.60;51.90;;;;;;5099567;28;19940;-89
2023/03/16 10:26:44;;;;;;;;;;;12.80;53.60;;;;;;5103699;27;20003;-89
2023/03/16 10:29:11;;;;;;;;;;;12.90;52.50;;;;;;5080429;28;20030;-89
2023/03/16 10:31:40;;;;;;;;;;;13.10;51.10;;;;;;5099444;27;19950;-89
2023/03/16 10:34:07;;;;;;;;;;;13.20;51.70;;;;;;5113880;28;19965;-89
2023/03/16 10:36:34;;;;;;;;;;;13.20;49.50;;;;;;5113139;28;19982;-88
2023/03/16 10:39:04;;;;;;;;;;;13.10;51.00;;;;;;5087499;28;20004;-89
2023/03/16 10:41:31;;;;;;;;;;;13.00;46.70;;;;;;5103616;28;20025;-89
2023/03/16 10:44:08;;;;;;;;;;;12.70;46.20;;;;;;5107242;27;19940;-89
2023/03/16 10:46:37;;;;;;;;;;;12.50;46.60;;;;;;5102398;28;20046;-89
2023/03/16 10:49:03;;;;;;;;;;;12.40;48.80;;;;;;5105131;28;19954;-89
2023/03/16 10:51:33;;;;;;;;;;;12.50;50.60;;;;;;5094872;28;19940;-89
2023/03/16 10:54:06;;;;;;;;;;;12.70;46.50;;;;;;5108135;27;19962;-90
2023/03/16 10:56:32;;;;;;;;;;;12.80;49.50;;;;;;5099058;28;19942;-88
2023/03/16 10:58:59;;;;;;;;;;;12.90;48.40;;;;;;5107423;27;20038;-89
2023/03/16 11:01:28;;;;;;;;;;;12.90;47.00;;;;;;5095742;28;20050;-88
2023/03/16 11:03:55;;;;;;;;;;;13.10;47.50;;;;;;5097707;27;19972;-89
2023/03/16 11:06:23;;;;;;;;;;;13.10;46.30;;;;;;5091230;28;21504;-89
2023/03/16 11:08:50;;;;;;;;;;;13.10;45.10;;;;;;5095145;28;19947;-89
2023/03/16 11:11:17;;;;;;;;;;;13.20;46.60;;;;;;5113288;28;19948;-89
2023/03/16 11:13:44;;;;;;;;;;;13.30;42.70;;;;;;5086525;28;19950;-88
2023/03/16 11:16:29;;;;;;;;;;;13.30;45.90;;;;;;5093463;28;20042;-89
2023/03/16 11:19:03;;;;;;;;;;;13.20;43.70;;;;;;5111565;28;20298;-89
2023/03/16 11:21:53;;;;;;;;;;;13.20;40.50;;;;;;5111620;28;19943;-89
2023/03/16 11:24:24;;;;;;;;;;;13.30;44.50;;;;;;5099837;28;19948;-89
2023/03/16 11:26:55;;;;;;;;;;;13.50;40.90;;;;;;5094004;28;20006;-89
2023/03/16 11:29:20;;;;;;;;;;;13.60;41.60;;;;;;5111508;28;19949;-89
2023/03/16 11:31:52;;;;;;;;;;;14.00;44.50;;;;;;5098483;28;20033;-89
2023/03/16 11:34:21;;;;;;;;;;;14.30;45.40;;;;;;5106619;28;20378;-89
2023/03/16 11:36:52;;;;;;;;;;;14.40;43.40;;;;;;5120109;28;19994;-90
2023/03/16 11:39:30;;;;;;;;;;;14.50;45.10;;;;;;5120390;28;19988;-89
2023/03/16 11:42:00;;;;;;;;;;;14.70;42.40;;;;;;5106538;28;20419;-89
2023/03/16 11:44:49;;;;;;;;;;;14.40;44.80;;;;;;5111199;28;19951;-89
2023/03/16 11:47:52;;;;;;;;;;;14.40;44.80;;;;;;5084742;28;19966;-89
2023/03/16 11:50:21;;;;;;;;;;;14.50;43.10;;;;;;5099803;28;20370;-89
2023/03/16 11:52:59;;;;;;;;;;;14.80;46.20;;;;;;5100214;28;19984;-89
2023/03/16 11:55:32;;;;;;;;;;;14.60;39.60;;;;;;5099486;28;20386;-89
2023/03/16 11:58:06;;;;;;;;;;;14.00;39.30;;;;;;5116975;28;19955;-89
2023/03/16 12:00:51;;;;;;;;;;;13.90;39.60;;;;;;5117992;28;19943;-89
2023/03/16 12:03:28;;;;;;;;;;;14.10;36.50;;;;;;5103049;28;19955;-89
2023/03/16 12:05:56;;;;;;;;;;;14.30;40.00;;;;;;5100025;28;19956;-89
2023/03/16 12:08:30;;;;;;;;;;;14.20;39.60;;;;;;5115632;28;19962;-89
2023/03/16 12:10:59;;;;;;;;;;;14.40;38.30;;;;;;5106829;28;20449;-90
2023/03/16 12:13:37;;;;;;;;;;;14.90;35.70;;;;;;5111294;28;19941;-89
2023/03/16 12:16:23;;;;;;;;;;;15.50;34.80;;;;;;5114332;28;19942;-90
2023/03/16 12:18:54;;;;;;;;;;;16.20;34.40;;;;;;5098308;28;19994;-89
2023/03/16 12:21:23;;;;;;;;;;;16.40;38.60;;;;;;5118788;28;19944;-89
2023/03/16 12:23:51;;;;;;;;;;;16.80;34.60;;;;;;5112868;28;19944;-89
2023/03/16 12:26:18;;;;;;;;;;;17.00;34.90;;;;;;5114959;28;19985;-90
2023/03/16 12:28:43;;;;;;;;;;;16.90;31.00;;;;;;5084744;27;20329;-90
2023/03/16 12:31:12;;;;;;;;;;;16.80;37.80;;;;;;5109358;27;19942;-89
2023/03/16 12:33:41;;;;;;;;;;;17.00;33.80;;;;;;5090531;27;20046;-89
2023/03/16 12:36:06;;;;;;;;;;;17.00;39.40;;;;;;5112841;27;19996;-89
2023/03/16 12:38:44;;;;;;;;;;;16.90;34.60;;;;;;5111977;27;19944;-89
2023/03/16 12:41:18;;;;;;;;;;;17.00;35.10;;;;;;5112775;28;20411;-90
2023/03/16 12:43:59;;;;;;;;;;;17.80;34.30;;;;;;5108741;28;20052;-89
2023/03/16 12:46:33;;;;;;;;;;;18.00;33.50;;;;;;5108435;27;20033;-90
2023/03/16 12:49:00;;;;;;;;;;;18.90;30.10;;;;;;5098444;27;19961;-89
2023/03/16 12:51:37;;;;;;;;;;;19.40;30.60;;;;;;5091591;28;19943;-89
2023/03/16 12:54:04;;;;;;;;;;;20.80;26.80;;;;;;5107877;28;19947;-90
2023/03/16 12:56:34;;;;;;;;;;;21.80;26.00;;;;;;5108561;28;20035;-90
2023/03/16 12:59:02;;;;;;;;;;;22.70;25.60;;;;;;5105300;28;19942;-90
2023/03/16 13:01:36;;;;;;;;;;;23.70;23.30;;;;;;5104069;27;19997;-91
2023/03/16 13:04:07;;;;;;;;;;;24.00;27.80;;;;;;5109038;28;19999;-89
2023/03/16 13:06:35;;;;;;;;;;;23.20;24.60;;;;;;5103368;28;19995;-90
2023/03/16 13:09:03;;;;;;;;;;;22.50;28.90;;;;;;5103827;28;20404;-89
2023/03/16 13:11:39;;;;;;;;;;;22.10;26.50;;;;;;5103293;27;19940;-89
2023/03/16 13:14:07;;;;;;;;;;;21.00;27.60;;;;;;5104171;28;19951;-89
2023/03/16 13:16:35;;;;;;;;;;;21.10;30.20;;;;;;5082758;28;19959;-90
2023/03/16 13:19:15;;;;;;;;;;;21.20;31.70;;;;;;5108737;27;19945;-89
2023/03/16 13:21:41;;;;;;;;;;;21.50;30.20;;;;;;5106739;28;19993;-90
2023/03/16 13:24:16;;;;;;;;;;;22.00;32.20;;;;;;5111371;27;20373;-90
2023/03/16 13:26:49;;;;;;;;;;;23.10;29.20;;;;;;5100866;27;19961;-90
2023/03/16 13:29:26;;;;;;;;;;;23.30;26.90;;;;;;5114195;27;20032;-90
2023/03/16 13:31:52;;;;;;;;;;;23.00;28.00;;;;;;5103756;28;19954;-90
2023/03/16 13:34:23;;;;;;;;;;;22.30;28.50;;;;;;5106979;28;19944;-90
2023/03/16 13:36:51;;;;;;;;;;;22.90;29.50;;;;;;5104736;27;20025;-90
2023/03/16 13:39:18;;;;;;;;;;;23.30;29.40;;;;;;5104955;27;20006;-90
2023/03/16 13:42:01;;;;;;;;;;;23.60;29.30;;;;;;5101792;28;19974;-90
2023/03/16 13:44:27;;;;;;;;;;;24.20;29.00;;;;;;5096732;28;19963;-90
2023/03/16 13:46:52;;;;;;;;;;;24.20;27.00;;;;;;5100760;27;19956;-90
2023/03/16 13:49:18;;;;;;;;;;;25.20;24.20;;;;;;5084114;28;20663;-90
2023/03/16 13:51:46;;;;;;;;;;;24.20;25.00;;;;;;5081397;28;19945;-89
2023/03/16 13:54:25;;;;;;;;;;;22.80;28.40;;;;;;5097921;28;19966;-89
2023/03/16 13:56:58;;;;;;;;;;;21.90;29.00;;;;;;5106661;27;19939;-90
2023/03/16 13:59:25;;;;;;;;;;;22.30;30.90;;;;;;5082245;28;20215;-90
2023/03/16 14:01:56;;;;;;;;;;;22.40;29.40;;;;;;5102821;27;19949;-89
2023/03/16 14:04:23;;;;;;;;;;;22.40;29.00;;;;;;5101815;27;19981;-89
2023/03/16 14:06:56;;;;;;;;;;;22.30;31.00;;;;;;5100790;27;20004;-89
2023/03/16 14:09:24;;;;;;;;;;;22.40;31.50;;;;;;5085097;28;19960;-90
2023/03/16 14:11:50;;;;;;;;;;;22.30;29.70;;;;;;5086922;28;20400;-89
2023/03/16 14:14:22;;;;;;;;;;;22.00;32.40;;;;;;5102975;27;19997;-90
2023/03/16 14:16:48;;;;;;;;;;;21.90;33.70;;;;;;5098277;28;19961;-90
2023/03/16 14:19:13;;;;;;;;;;;22.70;32.70;;;;;;5101516;27;19942;-90
2023/03/16 14:21:42;;;;;;;;;;;22.80;31.60;;;;;;5100169;28;19951;-90
2023/03/16 14:24:18;;;;;;;;;;;22.90;29.60;;;;;;5104414;28;19968;-89
2023/03/16 14:26:46;;;;;;;;;;;22.30;29.30;;;;;;5099175;28;19962;-90
2023/03/16 14:29:20;;;;;;;;;;;23.20;30.00;;;;;;5105768;27;20078;-89